sensor_id;sensor_type;location;lat;lon;timestamp;P1;durP1;ratioP1;P2;durP2;ratioP2
45326;SDS011;31062;49.678;24.560;2023-04-29T00:00:48;4.25;;;3.15;;
45326;SDS011;31062;49.678;24.560;2023-04-29T00:03:34;4.90;;;3.72;;
45326;SDS011;31062;49.678;24.560;2023-04-29T00:06:20;9.35;;;3.70;;
45326;SDS011;31062;49.678;24.560;2023-04-29T00:09:08;4.68;;;3.38;;
45326;SDS011;31062;49.678;24.560;2023-04-29T00:11:53;7.15;;;3.72;;
45326;SDS011;31062;49.678;24.560;2023-04-29T00:14:39;5.95;;;3.70;;
45326;SDS011;31062;49.678;24.560;2023-04-29T00:17:25;5.38;;;3.95;;
45326;SDS011;31062;49.678;24.560;2023-04-29T00:20:11;4.95;;;3.63;;
45326;SDS011;31062;49.678;24.560;2023-04-29T00:22:56;5.32;;;3.30;;
45326;SDS011;31062;49.678;24.560;2023-04-29T00:25:42;5.20;;;3.90;;
45326;SDS011;31062;49.678;24.560;2023-04-29T00:28:28;3.83;;;3.40;;
45326;SDS011;31062;49.678;24.560;2023-04-29T00:31:13;9.30;;;4.10;;
45326;SDS011;31062;49.678;24.560;2023-04-29T00:33:59;4.93;;;3.78;;
45326;SDS011;31062;49.678;24.560;2023-04-29T00:36:44;5.00;;;3.50;;
45326;SDS011;31062;49.678;24.560;2023-04-29T00:39:30;6.38;;;3.95;;
45326;SDS011;31062;49.678;24.560;2023-04-29T00:42:16;6.20;;;4.07;;
45326;SDS011;31062;49.678;24.560;2023-04-29T00:45:02;6.82;;;3.80;;
45326;SDS011;31062;49.678;24.560;2023-04-29T00:47:50;4.70;;;3.83;;
45326;SDS011;31062;49.678;24.560;2023-04-29T00:50:36;5.38;;;3.80;;
45326;SDS011;31062;49.678;24.560;2023-04-29T00:53:22;4.15;;;3.72;;
45326;SDS011;31062;49.678;24.560;2023-04-29T00:56:08;5.72;;;3.70;;
45326;SDS011;31062;49.678;24.560;2023-04-29T00:58:54;6.28;;;3.53;;
45326;SDS011;31062;49.678;24.560;2023-04-29T01:01:40;7.18;;;4.15;;
45326;SDS011;31062;49.678;24.560;2023-04-29T01:04:25;9.25;;;3.75;;
45326;SDS011;31062;49.678;24.560;2023-04-29T01:10:03;10.40;;;3.80;;
45326;SDS011;31062;49.678;24.560;2023-04-29T01:13:17;7.32;;;3.65;;
45326;SDS011;31062;49.678;24.560;2023-04-29T01:16:28;7.47;;;4.20;;
45326;SDS011;31062;49.678;24.560;2023-04-29T01:22:31;6.57;;;4.25;;
45326;SDS011;31062;49.678;24.560;2023-04-29T01:25:16;4.53;;;3.90;;
45326;SDS011;31062;49.678;24.560;2023-04-29T01:28:42;5.63;;;3.28;;
45326;SDS011;31062;49.678;24.560;2023-04-29T01:31:50;4.65;;;3.65;;
45326;SDS011;31062;49.678;24.560;2023-04-29T01:41:26;5.97;;;3.05;;
45326;SDS011;31062;49.678;24.560;2023-04-29T01:44:30;7.03;;;3.90;;
45326;SDS011;31062;49.678;24.560;2023-04-29T01:47:18;4.05;;;3.28;;
45326;SDS011;31062;49.678;24.560;2023-04-29T01:50:08;9.32;;;3.10;;
45326;SDS011;31062;49.678;24.560;2023-04-29T01:52:55;4.30;;;3.42;;
45326;SDS011;31062;49.678;24.560;2023-04-29T01:55:40;4.10;;;3.50;;
45326;SDS011;31062;49.678;24.560;2023-04-29T01:58:50;3.90;;;3.10;;
45326;SDS011;31062;49.678;24.560;2023-04-29T02:01:50;3.65;;;3.35;;
45326;SDS011;31062;49.678;24.560;2023-04-29T02:04:36;7.45;;;3.60;;
45326;SDS011;31062;49.678;24.560;2023-04-29T02:07:21;4.25;;;3.55;;
45326;SDS011;31062;49.678;24.560;2023-04-29T02:10:08;6.43;;;3.28;;
45326;SDS011;31062;49.678;24.560;2023-04-29T02:12:56;6.10;;;3.50;;
45326;SDS011;31062;49.678;24.560;2023-04-29T02:15:42;5.40;;;3.42;;
45326;SDS011;31062;49.678;24.560;2023-04-29T02:18:27;3.53;;;3.22;;
45326;SDS011;31062;49.678;24.560;2023-04-29T02:21:12;3.97;;;3.45;;
45326;SDS011;31062;49.678;24.560;2023-04-29T02:23:58;4.57;;;3.42;;
45326;SDS011;31062;49.678;24.560;2023-04-29T02:26:43;4.75;;;3.67;;
45326;SDS011;31062;49.678;24.560;2023-04-29T02:29:28;5.07;;;3.40;;
45326;SDS011;31062;49.678;24.560;2023-04-29T02:32:15;4.65;;;4.00;;
45326;SDS011;31062;49.678;24.560;2023-04-29T02:35:04;4.05;;;3.35;;
45326;SDS011;31062;49.678;24.560;2023-04-29T02:37:50;3.90;;;3.42;;
45326;SDS011;31062;49.678;24.560;2023-04-29T02:40:42;7.70;;;3.65;;
45326;SDS011;31062;49.678;24.560;2023-04-29T02:43:29;5.28;;;3.75;;
45326;SDS011;31062;49.678;24.560;2023-04-29T02:46:16;4.47;;;2.75;;
45326;SDS011;31062;49.678;24.560;2023-04-29T02:49:03;4.95;;;3.63;;
45326;SDS011;31062;49.678;24.560;2023-04-29T02:51:49;5.32;;;3.08;;
45326;SDS011;31062;49.678;24.560;2023-04-29T02:54:35;5.63;;;3.42;;
45326;SDS011;31062;49.678;24.560;2023-04-29T02:57:22;4.85;;;3.20;;
45326;SDS011;31062;49.678;24.560;2023-04-29T03:00:07;7.97;;;4.32;;
45326;SDS011;31062;49.678;24.560;2023-04-29T03:02:54;5.78;;;3.72;;
45326;SDS011;31062;49.678;24.560;2023-04-29T03:05:40;3.95;;;3.50;;
45326;SDS011;31062;49.678;24.560;2023-04-29T03:08:25;6.20;;;3.63;;
45326;SDS011;31062;49.678;24.560;2023-04-29T03:11:12;7.00;;;4.00;;
45326;SDS011;31062;49.678;24.560;2023-04-29T03:13:57;7.88;;;4.38;;
45326;SDS011;31062;49.678;24.560;2023-04-29T03:16:43;4.15;;;3.40;;
45326;SDS011;31062;49.678;24.560;2023-04-29T03:19:29;6.00;;;3.55;;
45326;SDS011;31062;49.678;24.560;2023-04-29T03:22:15;7.63;;;4.50;;
45326;SDS011;31062;49.678;24.560;2023-04-29T03:25:00;6.70;;;4.80;;
45326;SDS011;31062;49.678;24.560;2023-04-29T03:27:47;7.03;;;5.10;;
45326;SDS011;31062;49.678;24.560;2023-04-29T03:30:32;9.23;;;5.80;;
45326;SDS011;31062;49.678;24.560;2023-04-29T03:33:18;6.88;;;5.03;;
45326;SDS011;31062;49.678;24.560;2023-04-29T03:36:04;8.63;;;4.80;;
45326;SDS011;31062;49.678;24.560;2023-04-29T03:38:57;5.88;;;4.05;;
45326;SDS011;31062;49.678;24.560;2023-04-29T03:41:45;6.68;;;3.70;;
45326;SDS011;31062;49.678;24.560;2023-04-29T03:44:32;6.40;;;3.22;;
45326;SDS011;31062;49.678;24.560;2023-04-29T03:47:18;5.20;;;3.00;;
45326;SDS011;31062;49.678;24.560;2023-04-29T03:50:04;4.13;;;3.42;;
45326;SDS011;31062;49.678;24.560;2023-04-29T03:52:52;5.47;;;3.30;;
45326;SDS011;31062;49.678;24.560;2023-04-29T03:55:38;3.47;;;3.13;;
45326;SDS011;31062;49.678;24.560;2023-04-29T03:58:24;6.20;;;3.65;;
45326;SDS011;31062;49.678;24.560;2023-04-29T04:01:09;3.60;;;3.25;;
45326;SDS011;31062;49.678;24.560;2023-04-29T04:04:01;7.00;;;3.80;;
45326;SDS011;31062;49.678;24.560;2023-04-29T04:06:48;5.45;;;3.85;;
45326;SDS011;31062;49.678;24.560;2023-04-29T04:09:39;4.80;;;3.70;;
45326;SDS011;31062;49.678;24.560;2023-04-29T04:12:26;5.25;;;3.67;;
45326;SDS011;31062;49.678;24.560;2023-04-29T04:15:12;5.13;;;3.55;;
45326;SDS011;31062;49.678;24.560;2023-04-29T04:17:58;8.35;;;4.47;;
45326;SDS011;31062;49.678;24.560;2023-04-29T04:20:44;6.05;;;4.25;;
45326;SDS011;31062;49.678;24.560;2023-04-29T04:23:30;5.65;;;4.22;;
45326;SDS011;31062;49.678;24.560;2023-04-29T04:26:16;6.93;;;5.10;;
45326;SDS011;31062;49.678;24.560;2023-04-29T04:29:13;7.63;;;4.88;;
45326;SDS011;31062;49.678;24.560;2023-04-29T04:32:25;5.53;;;4.33;;
45326;SDS011;31062;49.678;24.560;2023-04-29T04:35:11;5.25;;;4.10;;
45326;SDS011;31062;49.678;24.560;2023-04-29T04:37:57;5.30;;;4.10;;
45326;SDS011;31062;49.678;24.560;2023-04-29T04:40:43;5.32;;;3.97;;
45326;SDS011;31062;49.678;24.560;2023-04-29T04:43:43;6.70;;;4.10;;
45326;SDS011;31062;49.678;24.560;2023-04-29T04:46:43;5.28;;;4.05;;
45326;SDS011;31062;49.678;24.560;2023-04-29T04:49:32;7.32;;;3.85;;
45326;SDS011;31062;49.678;24.560;2023-04-29T04:52:21;5.40;;;4.32;;
45326;SDS011;31062;49.678;24.560;2023-04-29T04:55:26;8.23;;;4.20;;
45326;SDS011;31062;49.678;24.560;2023-04-29T04:58:12;6.57;;;4.95;;
45326;SDS011;31062;49.678;24.560;2023-04-29T05:00:58;5.78;;;4.30;;
45326;SDS011;31062;49.678;24.560;2023-04-29T05:03:44;4.82;;;4.07;;
45326;SDS011;31062;49.678;24.560;2023-04-29T05:06:30;7.60;;;4.30;;
45326;SDS011;31062;49.678;24.560;2023-04-29T05:09:17;7.30;;;4.65;;
45326;SDS011;31062;49.678;24.560;2023-04-29T05:12:03;9.10;;;5.68;;
45326;SDS011;31062;49.678;24.560;2023-04-29T05:14:53;6.68;;;4.88;;
45326;SDS011;31062;49.678;24.560;2023-04-29T05:17:39;12.07;;;6.15;;
45326;SDS011;31062;49.678;24.560;2023-04-29T05:20:25;13.93;;;8.25;;
45326;SDS011;31062;49.678;24.560;2023-04-29T05:23:13;13.23;;;8.25;;
45326;SDS011;31062;49.678;24.560;2023-04-29T05:26:02;13.60;;;7.68;;
45326;SDS011;31062;49.678;24.560;2023-04-29T05:28:48;11.73;;;6.63;;
45326;SDS011;31062;49.678;24.560;2023-04-29T05:31:35;8.57;;;4.88;;
45326;SDS011;31062;49.678;24.560;2023-04-29T05:34:23;9.48;;;5.10;;
45326;SDS011;31062;49.678;24.560;2023-04-29T05:37:09;4.82;;;3.95;;
45326;SDS011;31062;49.678;24.560;2023-04-29T05:40:11;9.10;;;3.42;;
45326;SDS011;31062;49.678;24.560;2023-04-29T05:42:58;13.25;;;4.20;;
45326;SDS011;31062;49.678;24.560;2023-04-29T05:45:48;6.22;;;3.47;;
45326;SDS011;31062;49.678;24.560;2023-04-29T05:48:35;6.88;;;3.80;;
45326;SDS011;31062;49.678;24.560;2023-04-29T05:51:21;8.15;;;3.58;;
45326;SDS011;31062;49.678;24.560;2023-04-29T05:54:07;5.13;;;3.28;;
45326;SDS011;31062;49.678;24.560;2023-04-29T05:56:54;6.82;;;4.25;;
45326;SDS011;31062;49.678;24.560;2023-04-29T05:59:41;3.55;;;3.03;;
45326;SDS011;31062;49.678;24.560;2023-04-29T06:02:28;5.35;;;2.72;;
45326;SDS011;31062;49.678;24.560;2023-04-29T06:05:14;3.65;;;3.08;;
45326;SDS011;31062;49.678;24.560;2023-04-29T06:08:11;6.93;;;2.85;;
45326;SDS011;31062;49.678;24.560;2023-04-29T06:11:08;4.05;;;2.75;;
45326;SDS011;31062;49.678;24.560;2023-04-29T06:13:54;3.75;;;2.80;;
45326;SDS011;31062;49.678;24.560;2023-04-29T06:16:40;7.03;;;2.70;;
45326;SDS011;31062;49.678;24.560;2023-04-29T06:19:27;10.75;;;8.40;;
45326;SDS011;31062;49.678;24.560;2023-04-29T06:22:14;5.45;;;4.95;;
45326;SDS011;31062;49.678;24.560;2023-04-29T06:28:01;4.72;;;3.42;;
45326;SDS011;31062;49.678;24.560;2023-04-29T06:30:52;6.15;;;2.85;;
45326;SDS011;31062;49.678;24.560;2023-04-29T06:33:38;5.85;;;2.88;;
45326;SDS011;31062;49.678;24.560;2023-04-29T06:36:25;3.47;;;2.28;;
45326;SDS011;31062;49.678;24.560;2023-04-29T06:39:23;6.18;;;1.95;;
45326;SDS011;31062;49.678;24.560;2023-04-29T06:42:28;5.95;;;2.40;;
45326;SDS011;31062;49.678;24.560;2023-04-29T06:45:46;4.32;;;2.70;;
45326;SDS011;31062;49.678;24.560;2023-04-29T06:48:42;3.45;;;2.10;;
45326;SDS011;31062;49.678;24.560;2023-04-29T06:51:28;2.70;;;1.92;;
45326;SDS011;31062;49.678;24.560;2023-04-29T06:54:16;9.05;;;2.72;;
45326;SDS011;31062;49.678;24.560;2023-04-29T06:57:02;7.78;;;2.45;;
45326;SDS011;31062;49.678;24.560;2023-04-29T06:59:48;4.75;;;2.15;;
45326;SDS011;31062;49.678;24.560;2023-04-29T07:02:34;4.88;;;2.30;;
45326;SDS011;31062;49.678;24.560;2023-04-29T07:05:21;3.78;;;2.42;;
45326;SDS011;31062;49.678;24.560;2023-04-29T07:08:07;6.65;;;2.35;;
45326;SDS011;31062;49.678;24.560;2023-04-29T07:10:55;7.25;;;2.13;;
45326;SDS011;31062;49.678;24.560;2023-04-29T07:13:41;4.95;;;2.13;;
45326;SDS011;31062;49.678;24.560;2023-04-29T07:16:27;5.35;;;2.47;;
45326;SDS011;31062;49.678;24.560;2023-04-29T07:19:14;3.58;;;2.75;;
45326;SDS011;31062;49.678;24.560;2023-04-29T07:22:00;3.35;;;2.20;;
45326;SDS011;31062;49.678;24.560;2023-04-29T07:24:46;8.95;;;2.65;;
45326;SDS011;31062;49.678;24.560;2023-04-29T07:27:33;5.38;;;2.17;;
45326;SDS011;31062;49.678;24.560;2023-04-29T07:30:19;2.85;;;1.85;;
45326;SDS011;31062;49.678;24.560;2023-04-29T07:33:04;10.40;;;2.78;;
45326;SDS011;31062;49.678;24.560;2023-04-29T07:35:50;3.28;;;1.92;;
45326;SDS011;31062;49.678;24.560;2023-04-29T07:38:36;7.13;;;2.85;;
45326;SDS011;31062;49.678;24.560;2023-04-29T07:41:22;4.03;;;2.30;;
45326;SDS011;31062;49.678;24.560;2023-04-29T07:44:07;6.50;;;2.35;;
45326;SDS011;31062;49.678;24.560;2023-04-29T07:46:53;4.32;;;2.05;;
45326;SDS011;31062;49.678;24.560;2023-04-29T07:49:39;2.72;;;1.80;;
45326;SDS011;31062;49.678;24.560;2023-04-29T07:52:27;7.72;;;2.10;;
45326;SDS011;31062;49.678;24.560;2023-04-29T07:55:13;2.80;;;2.25;;
45326;SDS011;31062;49.678;24.560;2023-04-29T07:57:59;3.03;;;2.42;;
45326;SDS011;31062;49.678;24.560;2023-04-29T08:00:46;2.88;;;2.50;;
45326;SDS011;31062;49.678;24.560;2023-04-29T08:03:32;8.98;;;2.85;;
45326;SDS011;31062;49.678;24.560;2023-04-29T08:06:20;6.18;;;2.60;;
45326;SDS011;31062;49.678;24.560;2023-04-29T08:09:07;6.65;;;2.42;;
45326;SDS011;31062;49.678;24.560;2023-04-29T08:11:54;7.07;;;2.13;;
45326;SDS011;31062;49.678;24.560;2023-04-29T08:14:40;3.30;;;2.22;;
45326;SDS011;31062;49.678;24.560;2023-04-29T08:17:26;3.83;;;2.53;;
45326;SDS011;31062;49.678;24.560;2023-04-29T08:20:12;6.35;;;2.53;;
45326;SDS011;31062;49.678;24.560;2023-04-29T08:22:59;2.28;;;2.08;;
45326;SDS011;31062;49.678;24.560;2023-04-29T08:25:46;3.67;;;2.40;;
45326;SDS011;31062;49.678;24.560;2023-04-29T08:28:32;7.60;;;2.58;;
45326;SDS011;31062;49.678;24.560;2023-04-29T08:31:19;4.45;;;2.67;;
45326;SDS011;31062;49.678;24.560;2023-04-29T08:34:06;3.20;;;2.03;;
45326;SDS011;31062;49.678;24.560;2023-04-29T08:36:51;3.13;;;2.30;;
45326;SDS011;31062;49.678;24.560;2023-04-29T08:39:38;2.80;;;2.15;;
45326;SDS011;31062;49.678;24.560;2023-04-29T08:42:33;1.98;;;1.85;;
45326;SDS011;31062;49.678;24.560;2023-04-29T08:45:20;4.65;;;2.15;;
45326;SDS011;31062;49.678;24.560;2023-04-29T08:48:09;2.30;;;1.85;;
45326;SDS011;31062;49.678;24.560;2023-04-29T08:50:57;4.47;;;2.53;;
45326;SDS011;31062;49.678;24.560;2023-04-29T08:53:44;3.10;;;2.33;;
45326;SDS011;31062;49.678;24.560;2023-04-29T08:56:31;3.85;;;1.88;;
45326;SDS011;31062;49.678;24.560;2023-04-29T08:59:18;2.20;;;2.00;;
45326;SDS011;31062;49.678;24.560;2023-04-29T09:02:05;4.63;;;2.28;;
45326;SDS011;31062;49.678;24.560;2023-04-29T09:05:06;4.43;;;2.50;;
45326;SDS011;31062;49.678;24.560;2023-04-29T09:07:55;5.70;;;2.97;;
45326;SDS011;31062;49.678;24.560;2023-04-29T09:10:44;4.32;;;2.45;;
45326;SDS011;31062;49.678;24.560;2023-04-29T09:13:31;3.47;;;2.10;;
45326;SDS011;31062;49.678;24.560;2023-04-29T09:16:17;2.30;;;2.10;;
45326;SDS011;31062;49.678;24.560;2023-04-29T09:19:03;3.45;;;2.17;;
45326;SDS011;31062;49.678;24.560;2023-04-29T09:21:55;2.45;;;1.85;;
45326;SDS011;31062;49.678;24.560;2023-04-29T09:24:41;4.43;;;2.47;;
45326;SDS011;31062;49.678;24.560;2023-04-29T09:27:29;8.70;;;2.67;;
45326;SDS011;31062;49.678;24.560;2023-04-29T09:30:15;5.03;;;2.28;;
45326;SDS011;31062;49.678;24.560;2023-04-29T09:33:08;5.63;;;2.28;;
45326;SDS011;31062;49.678;24.560;2023-04-29T09:35:54;14.57;;;3.30;;
45326;SDS011;31062;49.678;24.560;2023-04-29T09:38:52;2.90;;;2.28;;
45326;SDS011;31062;49.678;24.560;2023-04-29T09:41:40;3.05;;;2.47;;
45326;SDS011;31062;49.678;24.560;2023-04-29T09:44:44;2.53;;;2.33;;
45326;SDS011;31062;49.678;24.560;2023-04-29T09:47:30;4.35;;;2.25;;
45326;SDS011;31062;49.678;24.560;2023-04-29T09:50:17;8.80;;;3.00;;
45326;SDS011;31062;49.678;24.560;2023-04-29T09:53:05;6.25;;;2.25;;
45326;SDS011;31062;49.678;24.560;2023-04-29T09:58:38;3.05;;;2.22;;
45326;SDS011;31062;49.678;24.560;2023-04-29T10:01:25;7.75;;;2.40;;
45326;SDS011;31062;49.678;24.560;2023-04-29T10:04:12;2.33;;;2.10;;
45326;SDS011;31062;49.678;24.560;2023-04-29T10:07:00;2.47;;;1.90;;
45326;SDS011;31062;49.678;24.560;2023-04-29T10:09:47;6.07;;;2.25;;
45326;SDS011;31062;49.678;24.560;2023-04-29T10:12:33;6.22;;;2.40;;
45326;SDS011;31062;49.678;24.560;2023-04-29T10:15:28;2.58;;;1.90;;
45326;SDS011;31062;49.678;24.560;2023-04-29T10:18:21;3.05;;;1.88;;
45326;SDS011;31062;49.678;24.560;2023-04-29T10:21:15;3.70;;;2.10;;
45326;SDS011;31062;49.678;24.560;2023-04-29T10:24:03;3.65;;;1.80;;
45326;SDS011;31062;49.678;24.560;2023-04-29T10:26:51;2.22;;;2.05;;
45326;SDS011;31062;49.678;24.560;2023-04-29T10:29:40;5.88;;;2.10;;
45326;SDS011;31062;49.678;24.560;2023-04-29T10:32:28;3.50;;;2.00;;
45326;SDS011;31062;49.678;24.560;2023-04-29T10:35:33;3.58;;;1.77;;
45326;SDS011;31062;49.678;24.560;2023-04-29T10:41:28;5.65;;;1.83;;
45326;SDS011;31062;49.678;24.560;2023-04-29T10:44:22;2.97;;;1.80;;
45326;SDS011;31062;49.678;24.560;2023-04-29T10:47:17;3.00;;;1.85;;
45326;SDS011;31062;49.678;24.560;2023-04-29T10:50:04;4.13;;;1.90;;
45326;SDS011;31062;49.678;24.560;2023-04-29T10:52:50;3.65;;;2.15;;
45326;SDS011;31062;49.678;24.560;2023-04-29T10:55:36;6.00;;;2.20;;
45326;SDS011;31062;49.678;24.560;2023-04-29T10:58:36;4.03;;;1.77;;
45326;SDS011;31062;49.678;24.560;2023-04-29T11:01:39;2.22;;;1.40;;
45326;SDS011;31062;49.678;24.560;2023-04-29T11:04:57;2.90;;;1.60;;
45326;SDS011;31062;49.678;24.560;2023-04-29T11:08:10;12.48;;;1.85;;
45326;SDS011;31062;49.678;24.560;2023-04-29T11:10:59;5.82;;;2.20;;
45326;SDS011;31062;49.678;24.560;2023-04-29T11:13:46;4.85;;;2.10;;
45326;SDS011;31062;49.678;24.560;2023-04-29T11:16:32;2.38;;;1.77;;
45326;SDS011;31062;49.678;24.560;2023-04-29T11:19:22;3.70;;;2.03;;
45326;SDS011;31062;49.678;24.560;2023-04-29T11:22:12;5.55;;;1.92;;
45326;SDS011;31062;49.678;24.560;2023-04-29T11:25:09;6.22;;;2.30;;
45326;SDS011;31062;49.678;24.560;2023-04-29T11:27:55;4.13;;;3.35;;
45326;SDS011;31062;49.678;24.560;2023-04-29T11:30:44;4.80;;;2.75;;
45326;SDS011;31062;49.678;24.560;2023-04-29T11:33:30;3.88;;;1.83;;
45326;SDS011;31062;49.678;24.560;2023-04-29T11:36:17;3.53;;;1.75;;
45326;SDS011;31062;49.678;24.560;2023-04-29T11:39:03;2.03;;;1.70;;
45326;SDS011;31062;49.678;24.560;2023-04-29T11:41:49;2.53;;;1.88;;
45326;SDS011;31062;49.678;24.560;2023-04-29T11:44:36;3.00;;;1.38;;
45326;SDS011;31062;49.678;24.560;2023-04-29T11:47:26;2.38;;;1.75;;
45326;SDS011;31062;49.678;24.560;2023-04-29T11:50:16;4.45;;;2.13;;
45326;SDS011;31062;49.678;24.560;2023-04-29T11:53:06;1.50;;;1.38;;
45326;SDS011;31062;49.678;24.560;2023-04-29T11:55:54;6.22;;;2.30;;
45326;SDS011;31062;49.678;24.560;2023-04-29T11:58:42;4.57;;;2.85;;
45326;SDS011;31062;49.678;24.560;2023-04-29T12:01:28;3.03;;;1.90;;
45326;SDS011;31062;49.678;24.560;2023-04-29T12:04:15;4.75;;;2.00;;
45326;SDS011;31062;49.678;24.560;2023-04-29T12:07:03;3.13;;;2.05;;
45326;SDS011;31062;49.678;24.560;2023-04-29T12:09:49;5.38;;;2.30;;
45326;SDS011;31062;49.678;24.560;2023-04-29T12:12:35;5.88;;;2.00;;
45326;SDS011;31062;49.678;24.560;2023-04-29T12:15:25;2.25;;;2.05;;
45326;SDS011;31062;49.678;24.560;2023-04-29T12:18:15;3.58;;;1.90;;
45326;SDS011;31062;49.678;24.560;2023-04-29T12:21:02;7.25;;;1.70;;
45326;SDS011;31062;49.678;24.560;2023-04-29T12:23:48;3.92;;;1.70;;
45326;SDS011;31062;49.678;24.560;2023-04-29T12:26:35;4.40;;;2.85;;
45326;SDS011;31062;49.678;24.560;2023-04-29T12:29:21;5.05;;;2.63;;
45326;SDS011;31062;49.678;24.560;2023-04-29T12:32:11;3.15;;;2.17;;
45326;SDS011;31062;49.678;24.560;2023-04-29T12:35:01;2.83;;;1.48;;
45326;SDS011;31062;49.678;24.560;2023-04-29T12:37:48;2.42;;;1.60;;
45326;SDS011;31062;49.678;24.560;2023-04-29T12:40:35;2.83;;;1.95;;
45326;SDS011;31062;49.678;24.560;2023-04-29T12:43:27;2.42;;;1.30;;
45326;SDS011;31062;49.678;24.560;2023-04-29T12:46:14;6.35;;;2.20;;
45326;SDS011;31062;49.678;24.560;2023-04-29T12:49:01;3.03;;;2.25;;
45326;SDS011;31062;49.678;24.560;2023-04-29T12:51:48;4.50;;;1.80;;
45326;SDS011;31062;49.678;24.560;2023-04-29T12:54:38;6.43;;;1.65;;
45326;SDS011;31062;49.678;24.560;2023-04-29T12:57:29;10.23;;;1.58;;
45326;SDS011;31062;49.678;24.560;2023-04-29T13:00:17;2.78;;;1.48;;
45326;SDS011;31062;49.678;24.560;2023-04-29T13:03:04;2.10;;;1.35;;
45326;SDS011;31062;49.678;24.560;2023-04-29T13:05:51;2.28;;;1.73;;
45326;SDS011;31062;49.678;24.560;2023-04-29T13:08:39;4.47;;;1.48;;
45326;SDS011;31062;49.678;24.560;2023-04-29T13:11:26;2.88;;;1.45;;
45326;SDS011;31062;49.678;24.560;2023-04-29T13:14:18;5.35;;;1.77;;
45326;SDS011;31062;49.678;24.560;2023-04-29T13:17:03;1.70;;;1.60;;
45326;SDS011;31062;49.678;24.560;2023-04-29T13:19:50;5.30;;;2.00;;
45326;SDS011;31062;49.678;24.560;2023-04-29T13:22:36;5.97;;;2.25;;
45326;SDS011;31062;49.678;24.560;2023-04-29T13:25:22;1.67;;;1.40;;
45326;SDS011;31062;49.678;24.560;2023-04-29T13:28:08;4.68;;;1.58;;
45326;SDS011;31062;49.678;24.560;2023-04-29T13:30:57;4.32;;;1.90;;
45326;SDS011;31062;49.678;24.560;2023-04-29T13:33:42;3.88;;;1.20;;
45326;SDS011;31062;49.678;24.560;2023-04-29T13:36:28;7.90;;;1.58;;
45326;SDS011;31062;49.678;24.560;2023-04-29T13:39:14;5.95;;;1.67;;
45326;SDS011;31062;49.678;24.560;2023-04-29T13:42:02;11.10;;;5.97;;
45326;SDS011;31062;49.678;24.560;2023-04-29T13:44:48;2.58;;;1.88;;
45326;SDS011;31062;49.678;24.560;2023-04-29T13:47:44;5.20;;;3.85;;
45326;SDS011;31062;49.678;24.560;2023-04-29T13:50:50;1.63;;;1.50;;
45326;SDS011;31062;49.678;24.560;2023-04-29T13:53:56;3.03;;;1.77;;
45326;SDS011;31062;49.678;24.560;2023-04-29T13:57:02;2.65;;;1.70;;
45326;SDS011;31062;49.678;24.560;2023-04-29T14:00:08;1.55;;;1.45;;
45326;SDS011;31062;49.678;24.560;2023-04-29T14:03:15;2.03;;;1.40;;
45326;SDS011;31062;49.678;24.560;2023-04-29T14:06:03;2.38;;;1.48;;
45326;SDS011;31062;49.678;24.560;2023-04-29T14:08:51;2.85;;;1.40;;
45326;SDS011;31062;49.678;24.560;2023-04-29T14:11:37;2.45;;;1.48;;
45326;SDS011;31062;49.678;24.560;2023-04-29T14:14:23;1.30;;;1.20;;
45326;SDS011;31062;49.678;24.560;2023-04-29T14:17:09;2.25;;;1.30;;
45326;SDS011;31062;49.678;24.560;2023-04-29T14:19:56;3.33;;;1.25;;
45326;SDS011;31062;49.678;24.560;2023-04-29T14:22:43;7.22;;;3.10;;
45326;SDS011;31062;49.678;24.560;2023-04-29T14:25:29;1.83;;;1.50;;
45326;SDS011;31062;49.678;24.560;2023-04-29T14:28:18;2.08;;;1.30;;
45326;SDS011;31062;49.678;24.560;2023-04-29T14:31:03;5.20;;;2.90;;
45326;SDS011;31062;49.678;24.560;2023-04-29T14:33:49;2.53;;;1.67;;
45326;SDS011;31062;49.678;24.560;2023-04-29T14:36:35;9.65;;;2.28;;
45326;SDS011;31062;49.678;24.560;2023-04-29T14:39:21;3.22;;;2.22;;
45326;SDS011;31062;49.678;24.560;2023-04-29T14:42:07;1.98;;;1.20;;
45326;SDS011;31062;49.678;24.560;2023-04-29T14:44:54;6.75;;;3.83;;
45326;SDS011;31062;49.678;24.560;2023-04-29T14:47:42;6.65;;;3.53;;
45326;SDS011;31062;49.678;24.560;2023-04-29T14:50:30;5.38;;;3.20;;
45326;SDS011;31062;49.678;24.560;2023-04-29T14:53:17;4.10;;;1.73;;
45326;SDS011;31062;49.678;24.560;2023-04-29T14:56:06;2.95;;;1.60;;
45326;SDS011;31062;49.678;24.560;2023-04-29T14:58:53;14.32;;;3.28;;
45326;SDS011;31062;49.678;24.560;2023-04-29T15:01:41;5.88;;;3.40;;
45326;SDS011;31062;49.678;24.560;2023-04-29T15:04:28;18.25;;;4.97;;
45326;SDS011;31062;49.678;24.560;2023-04-29T15:07:14;5.45;;;2.17;;
45326;SDS011;31062;49.678;24.560;2023-04-29T15:10:01;1.75;;;1.40;;
45326;SDS011;31062;49.678;24.560;2023-04-29T15:12:47;2.75;;;0.90;;
45326;SDS011;31062;49.678;24.560;2023-04-29T15:15:33;1.35;;;1.10;;
45326;SDS011;31062;49.678;24.560;2023-04-29T15:18:19;2.92;;;2.30;;
45326;SDS011;31062;49.678;24.560;2023-04-29T15:21:08;3.95;;;2.03;;
45326;SDS011;31062;49.678;24.560;2023-04-29T15:23:55;4.97;;;1.63;;
45326;SDS011;31062;49.678;24.560;2023-04-29T15:26:41;1.55;;;1.45;;
45326;SDS011;31062;49.678;24.560;2023-04-29T15:29:28;1.80;;;1.25;;
45326;SDS011;31062;49.678;24.560;2023-04-29T15:32:14;3.25;;;1.73;;
45326;SDS011;31062;49.678;24.560;2023-04-29T15:35:00;4.82;;;1.42;;
45326;SDS011;31062;49.678;24.560;2023-04-29T15:37:48;2.83;;;1.33;;
45326;SDS011;31062;49.678;24.560;2023-04-29T15:40:34;2.40;;;1.33;;
45326;SDS011;31062;49.678;24.560;2023-04-29T15:43:20;1.63;;;1.52;;
45326;SDS011;31062;49.678;24.560;2023-04-29T15:46:09;2.38;;;1.25;;
45326;SDS011;31062;49.678;24.560;2023-04-29T15:48:56;5.47;;;2.03;;
45326;SDS011;31062;49.678;24.560;2023-04-29T15:51:42;2.78;;;1.20;;
45326;SDS011;31062;49.678;24.560;2023-04-29T15:54:28;3.72;;;1.48;;
45326;SDS011;31062;49.678;24.560;2023-04-29T15:57:14;7.00;;;4.25;;
45326;SDS011;31062;49.678;24.560;2023-04-29T16:00:00;3.97;;;1.63;;
45326;SDS011;31062;49.678;24.560;2023-04-29T16:02:49;4.80;;;2.92;;
45326;SDS011;31062;49.678;24.560;2023-04-29T16:05:35;8.65;;;4.90;;
45326;SDS011;31062;49.678;24.560;2023-04-29T16:08:22;9.02;;;5.55;;
45326;SDS011;31062;49.678;24.560;2023-04-29T16:11:08;9.18;;;3.03;;
45326;SDS011;31062;49.678;24.560;2023-04-29T16:13:54;6.13;;;2.60;;
45326;SDS011;31062;49.678;24.560;2023-04-29T16:16:40;2.53;;;1.73;;
45326;SDS011;31062;49.678;24.560;2023-04-29T16:19:28;3.33;;;1.40;;
45326;SDS011;31062;49.678;24.560;2023-04-29T16:22:14;3.20;;;1.48;;
45326;SDS011;31062;49.678;24.560;2023-04-29T16:25:01;2.88;;;1.77;;
45326;SDS011;31062;49.678;24.560;2023-04-29T16:27:48;4.53;;;1.80;;
45326;SDS011;31062;49.678;24.560;2023-04-29T16:30:35;2.05;;;1.15;;
45326;SDS011;31062;49.678;24.560;2023-04-29T16:33:21;3.35;;;1.52;;
45326;SDS011;31062;49.678;24.560;2023-04-29T16:36:08;1.17;;;1.00;;
45326;SDS011;31062;49.678;24.560;2023-04-29T16:38:54;2.67;;;1.58;;
45326;SDS011;31062;49.678;24.560;2023-04-29T16:41:40;2.45;;;1.50;;
45326;SDS011;31062;49.678;24.560;2023-04-29T16:44:26;1.90;;;1.48;;
45326;SDS011;31062;49.678;24.560;2023-04-29T16:47:11;8.63;;;2.40;;
45326;SDS011;31062;49.678;24.560;2023-04-29T16:49:57;2.67;;;1.85;;
45326;SDS011;31062;49.678;24.560;2023-04-29T16:52:43;4.47;;;1.50;;
45326;SDS011;31062;49.678;24.560;2023-04-29T16:55:30;2.53;;;1.23;;
45326;SDS011;31062;49.678;24.560;2023-04-29T16:58:16;2.55;;;1.50;;
45326;SDS011;31062;49.678;24.560;2023-04-29T17:01:02;1.38;;;1.17;;